Terminal Aerodrome Forecast
Issued by NWS Twin Cities, MN

Home | Current Version | Previous Version | Graphics & Text | Print | Product List | Glossary On
Versions: 1 2 3 4 5 6 7 8 9 10 11 12 13 14 15
000
FTUS43 KMPX 151412 AAA
TAFEAU
TAF AMD
KEAU 151412Z 1514/1612 32011KT P6SM OVC015
      TEMPO 1516/1518 SCT020 BKN035
     FM151800 30009KT P6SM BKN040
     FM152000 29010KT P6SM SCT045
     FM160100 VRB03KT P6SM BKN100=

USA.gov is the U.S. government's official web portal to all federal, state and local government web resources and services.